Nearby METAR Reports

 

EBAW - Airport Antwerp
Ververst: 18/01/2018 10:20
Meestal bewolkt
Meestal bewolkt
 Wind van W
Wind: W 65 km/h, Windvlaag: 104 km/h
Temperatuur: 9°C
Gevoelstemp.: 3°C
Dauwpunt: 1°C
Vochtigheid: 58%
Barometer: 995 hPa
Clouds: Meestal bewolkt
Visibility: 10 km
Cloud details: Few Clouds 914 m
Meestal bewolkt 1219 m
2018/01/18 09:20 EBAW 180920Z 28035G56KT 9999 FEW030 BKN040 09/01 Q0995 TEMPO 25027G48KT
EBBR - Brussels National Airport
Ververst: 18/01/2018 10:20
Meestal bewolkt
Meestal bewolkt
 Wind van W
Wind: W 50 km/h, Windvlaag: 78 km/h
Temperatuur: 9°C
Gevoelstemp.: 4°C
Dauwpunt: 2°C
Vochtigheid: 62%
Barometer: 997 hPa
Clouds: Meestal bewolkt
Visibility: 10 km
Cloud details: Meestal bewolkt 1189 m
2018/01/18 09:20 EBBR 180920Z 27027G42KT 9999 BKN039 09/02 Q0997 NOSIG
 
EBBL - Kleine Brogel Military Airport
Ververst: 18/01/2018 09:55
Meestal bewolkt
Meestal bewolkt
 Wind van W
Wind: W 56 km/h, Windvlaag: 98 km/h
Temperatuur: 10°C
Gevoelstemp.: 5°C
Dauwpunt: 2°C
Vochtigheid: 58%
Barometer: 991 hPa
Clouds: Meestal bewolkt
Visibility: 10 km
Cloud details: Meestal bewolkt 1372 m
2018/01/18 08:55 EBBL 180855Z 26030G53KT 9999 BKN045 10/02 Q0991 BLU BLU
EBCI - Charleroi Airport
Ververst: 18/01/2018 10:20
Gedeeltelijk bewolkt
Gedeeltelijk bewolkt
 Wind van W
Wind: W 41 km/h, Windvlaag: 69 km/h
Temperatuur: 9°C
Gevoelstemp.: 4°C
Dauwpunt: 3°C
Vochtigheid: 66%
Barometer: 998 hPa
Clouds: Gedeeltelijk bewolkt
Visibility: 10 km
Cloud details: Gedeeltelijk bewolkt 732 m
2018/01/18 09:20 EBCI 180920Z 26022G37KT 240V300 9999 SCT024 09/03 Q0998 TEMPO 25030G45KT
 
LERS - Reus Airport
Ververst: 18/01/2018 10:00
Helder
Helder
 Wind van varies
Wind: varies 2 km/h
Temperatuur: 7°C
Dauwpunt: 3°C
Vochtigheid: 76%
Barometer: 1025 hPa
Overzicht: Helder
Visibility: greater than 10 km
2018/01/18 09:00 LERS 180900Z VRB01KT CAVOK 07/03 Q1025
LIML - Milan Airport
Ververst: 18/01/2018 10:20
Helder
Helder
 Wind van N
Wind: N 7 km/h
Temperatuur: 6°C
Gevoelstemp.: 4°C
Dauwpunt: -4°C
Vochtigheid: 49%
Barometer: 1015 hPa
Overzicht: Helder
Visibility: greater than 10 km
2018/01/18 09:20 LIML 180920Z 36004KT CAVOK 06/M04 Q1015 NOSIG
 
LPMA - Madeira Airport
Ververst: 18/01/2018 10:00
Meestal bewolkt
Meestal bewolkt
 Wind van NNO
Wind: NNO 20 km/h
Temperatuur: 16°C
Dauwpunt: 11°C
Vochtigheid: 72%
Barometer: 1024 hPa
Clouds: Meestal bewolkt
Visibility: 10 km
Cloud details: Meestal bewolkt 457 m
2018/01/18 09:00 LPMA 180900Z 02011KT 320V070 9999 BKN015 16/11 Q1024
LGKO - Kos Airport
Ververst: 18/01/2018 10:20
Lichte regen, Meestal bewolkt
Lichte regen, Meestal bewolkt
 Wind van NW
Wind: NW 39 km/h, Windvlaag: 74 km/h
Temperatuur: 10°C
Gevoelstemp.: 6°C
Dauwpunt: 8°C
Vochtigheid: 88%
Barometer: 1000 hPa
Overzicht: Lichte regen
Clouds: Meestal bewolkt
Visibility: 10 km
Cloud details: Few Clouds 488 m
Meestal bewolkt 610 m
2018/01/18 09:20 LGKO 180920Z 32021G40KT 9999 -RA FEW016TCU BKN020 10/08 Q1000 RETS
 
LIRQ - Firenze Airport
Ververst: 18/01/2018 10:20
Helder
Helder
 Wind van varies
Wind: varies 4 km/h
Temperatuur: 4°C
Dauwpunt: -2°C
Vochtigheid: 65%
Barometer: 1020 hPa
Overzicht: Helder
Visibility: greater than 10 km
2018/01/18 09:20 LIRQ 180920Z VRB02KT CAVOK 04/M02 Q1020
LIRP - Pisa Airport
Ververst: 18/01/2018 10:15
Few Clouds
Few Clouds
 Wind van OZO
Wind: OZO 9 km/h
Temperatuur: 5°C
Gevoelstemp.: 3°C
Dauwpunt: 2°C
Vochtigheid: 81%
Barometer: 1020 hPa
Clouds: Few Clouds
Visibility: 10 km
Cloud details: Few Clouds 1219 m
2018/01/18 09:15 LIRP 180915Z 12005KT 9999 FEW040 05/02 Q1020 NOSIG